Thunder radar more information blitzortung!


Radar de pluja more information rain snow radar


Visita la nostra xarxa de llocs de meteo:

Template documentation
and downloads

And another site



No particular awareness of the weather is required.    There are no Weather-warnings

Pagina Historial Weather Underground text

Diari Resum Setembre 9, 2017 Unitats:  Imperial    Mètric   Tant
« Previous Dia
SegĂźent Dia »
Diari Setmana Mensual Anual Personalitzada
  Maxima: Minima: Media:
Temperatura: TemperatureC °F 12.5 °F 18.1 °F
Punt de rosada: DewpointC °F 8.2 °F 13.7 °F
Humitat: Humidity % 57 % 75 %
Wind Speed: WindSpeedKMH mph 0.0 mph 4.3 mph
RĂ fegues de vent: WindSpeedGustKMH mph - -
Vent:- - SSE
Pression baro: PressurehPa in 1001.9 in -
Precipitacions: 5.3 in    
Historical Graphs
 
 
Dades de taula per Setembre 9, 2017
Temps Temperatura Punt de rosada Pression baro Vent Wind Speed RĂ fegues de vent Humitat Rainfall Rate (Hourly)
TemperatureC °F DewpointC °F PressurehPa in Calm     Humidity % HourlyPrecipMM in
00:03 19.3 °F 11.8 °F 1010.0 in SW 2.3 mph 2.3 mph 62 % 0.0 in
00:04 19.3 °F 11.8 °F 1010.0 in SW 2.3 mph 2.3 mph 62 % 0.0 in
00:05 18.4 °F 13.4 °F 1006.0 in Calm   4.8 mph 73 % 0.0 in
00:09 19.3 °F 11.8 °F 1009.0 in Calm     62 % 0.0 in
00:15 18.5 °F 13.6 °F 1006.0 in Calm   1.6 mph 73 % 0.0 in
00:25 18.5 °F 13.6 °F 1006.0 in Calm   4.8 mph 73 % 0.0 in
00:35 18.5 °F 13.6 °F 1006.0 in NNE 4.8 mph 4.8 mph 73 % 0.0 in
00:45 18.6 °F 13.7 °F 1006.0 in North 1.6 mph 3.2 mph 73 % 0.0 in
00:55 18.6 °F 13.7 °F 1006.0 in Calm   1.6 mph 73 % 0.0 in
01:05 18.6 °F 13.7 °F 1006.0 in Calm   4.8 mph 73 % 0.0 in
01:15 18.6 °F 13.7 °F 1006.0 in Calm   3.2 mph 73 % 0.0 in
01:25 18.6 °F 13.7 °F 1006.0 in NNE 3.2 mph 4.8 mph 73 % 0.0 in
01:35 18.6 °F 13.9 °F 1006.0 in North 1.6 mph 3.2 mph 74 % 0.0 in
01:45 18.6 °F 13.7 °F 1005.0 in NNE 3.2 mph 6.4 mph 73 % 0.0 in
01:55 18.6 °F 13.7 °F 1003.9 in NNE 1.6 mph 4.8 mph 73 % 0.0 in
02:05 18.5 °F 13.8 °F 1003.9 in North 1.6 mph 3.2 mph 74 % 0.0 in
02:15 18.4 °F 13.7 °F 1003.9 in NNE 3.2 mph 3.2 mph 74 % 0.0 in
02:25 18.3 °F 13.6 °F 1003.9 in NNE 3.2 mph 6.4 mph 74 % 0.0 in
02:35 18.2 °F 13.5 °F 1003.9 in NE 3.2 mph 4.8 mph 74 % 0.0 in
02:45 18.2 °F 13.7 °F 1003.9 in NE 1.6 mph 4.8 mph 75 % 0.0 in
02:55 18.2 °F 13.5 °F 1003.9 in ENE 1.6 mph 6.4 mph 74 % 0.0 in
03:05 18.3 °F 13.6 °F 1003.9 in NNE 1.6 mph 3.2 mph 74 % 0.0 in
03:15 18.4 °F 13.9 °F 1003.9 in NE 1.6 mph 4.8 mph 75 % 0.0 in
03:25 18.4 °F 13.9 °F 1003.9 in NNE 4.8 mph 4.8 mph 75 % 0.0 in
03:35 18.4 °F 13.9 °F 1003.9 in North 4.8 mph 6.4 mph 75 % 0.0 in
03:45 18.3 °F 13.6 °F 1002.9 in North 8.0 mph 9.7 mph 74 % 0.0 in
03:55 18.3 °F 13.6 °F 1003.9 in NNE 8.0 mph 8.0 mph 74 % 0.0 in
04:05 18.5 °F 13.8 °F 1003.9 in NNE 4.8 mph 8.0 mph 74 % 0.0 in
04:15 18.5 °F 13.8 °F 1003.9 in NNE 4.8 mph 6.4 mph 74 % 0.0 in
04:25 18.7 °F 13.9 °F 1003.9 in North 3.2 mph 4.8 mph 74 % 0.0 in
04:35 18.8 °F 13.8 °F 1003.9 in North 1.6 mph 6.4 mph 73 % 0.0 in
04:45 18.9 °F 13.9 °F 1003.9 in NNE 4.8 mph 8.0 mph 73 % 0.0 in
04:55 19.1 °F 13.9 °F 1003.9 in NNE 3.2 mph 3.2 mph 72 % 0.0 in
05:05 19.4 °F 14.2 °F 1003.9 in North 1.6 mph 4.8 mph 72 % 0.0 in
05:15 19.8 °F 14.6 °F 1003.9 in NNE 1.6 mph 4.8 mph 72 % 0.0 in
05:25 20.4 °F 14.9 °F 1003.9 in NE 1.6 mph 4.8 mph 71 % 0.0 in
10:25 20.4 °F 14.9 °F 1003.9 in NE 4.7 mph 4.7 mph 71 % 0.0 in
10:30 21.1 °F 15.2 °F 1003.9 in ENE 1.9 mph 1.9 mph 69 % 0.0 in
10:35 21.1 °F 15.4 °F 1003.9 in NNW 3.7 mph 3.7 mph 70 % 0.0 in
10:40 21.4 °F 15.7 °F 1003.9 in NNW 4.7 mph 4.7 mph 70 % 0.0 in
10:45 21.8 °F 15.8 °F 1003.9 in ENE 5.6 mph 5.6 mph 69 % 0.0 in
10:50 22.2 °F 15.8 °F 1003.9 in North 3.7 mph 3.7 mph 67 % 0.0 in
10:55 22.7 °F 16.5 °F 1003.9 in North 2.6 mph 2.6 mph 68 % 0.0 in
11:00 22.7 °F 16.3 °F 1003.9 in ENE 9.3 mph 9.3 mph 67 % 0.0 in
11:05 22.6 °F 16.2 °F 1003.9 in NNE 3.7 mph 3.7 mph 67 % 0.0 in
11:10 23.0 °F 16.6 °F 1002.9 in East 7.4 mph 7.4 mph 67 % 0.0 in
11:15 23.0 °F 16.6 °F 1002.9 in NE 7.4 mph 7.4 mph 67 % 0.0 in
11:20 23.4 °F 16.9 °F 1002.9 in NE 8.7 mph 8.7 mph 67 % 0.0 in
11:25 23.2 °F 16.7 °F 1002.9 in NNE 7.4 mph 7.4 mph 67 % 0.0 in
11:30 23.8 °F 17.3 °F 1002.9 in NNE 5.6 mph 5.6 mph 67 % 0.0 in
11:35 23.8 °F 17.6 °F 1002.9 in East 5.6 mph 5.6 mph 68 % 0.0 in
11:40 23.8 °F 17.6 °F 1002.9 in East 5.8 mph 5.8 mph 68 % 0.0 in
11:45 23.8 °F 17.3 °F 1002.9 in NNE 5.6 mph 5.6 mph 67 % 0.0 in
11:50 23.9 °F 17.4 °F 1002.9 in NE 3.9 mph 3.9 mph 67 % 0.0 in
11:55 24.0 °F 17.3 °F 1002.9 in NNE 5.3 mph 5.3 mph 66 % 0.0 in
12:00 23.9 °F 17.4 °F 1002.9 in ENE 3.7 mph 3.9 mph 67 % 0.0 in
12:05 23.9 °F 17.4 °F 1002.9 in East 5.8 mph 5.8 mph 67 % 0.0 in
12:10 23.9 °F 17.4 °F 1002.9 in ENE 5.6 mph 5.6 mph 67 % 0.0 in
12:15 24.1 °F 17.3 °F 1002.9 in NNE 3.7 mph   66 % 0.0 in
12:20 24.6 °F 17.8 °F 1002.9 in Calm     66 % 0.0 in
12:25 24.7 °F 17.9 °F 1001.9 in West 4.2 mph 4.2 mph 66 % 0.0 in
12:30 24.8 °F 17.8 °F 1001.9 in NW 1.9 mph   65 % 0.0 in
12:35 24.8 °F 17.8 °F 1001.9 in SW 5.6 mph 5.8 mph 65 % 0.0 in
12:40 24.5 °F 17.0 °F 1001.9 in WSW 9.3 mph 9.3 mph 63 % 0.0 in
12:45 24.4 °F 16.7 °F 1001.9 in South 5.6 mph 5.6 mph 62 % 0.0 in
12:50 24.3 °F 16.3 °F 1001.9 in WSW 5.6 mph 5.6 mph 61 % 0.0 in
12:55 24.3 °F 16.3 °F 1001.9 in WSW 13.0 mph 13.0 mph 61 % 0.0 in
13:00 24.1 °F 15.8 °F 1001.9 in West 10.3 mph 10.3 mph 60 % 0.0 in
13:05 23.9 °F 15.9 °F 1001.9 in SW 7.4 mph 7.4 mph 61 % 0.0 in
13:10 23.8 °F 15.8 °F 1001.9 in SW 13.0 mph 13.0 mph 61 % 0.0 in
13:15 23.6 °F 15.6 °F 1001.9 in West 7.4 mph 7.4 mph 61 % 0.0 in
13:20 23.6 °F 15.4 °F 1001.9 in WNW 15.6 mph 15.6 mph 60 % 0.0 in
13:25 23.5 °F 15.3 °F 1001.9 in WNW 11.1 mph 11.1 mph 60 % 0.0 in
13:30 23.5 °F 15.3 °F 1001.9 in West 9.5 mph 9.5 mph 60 % 0.0 in
13:35 23.5 °F 15.3 °F 1001.9 in West 9.3 mph 9.3 mph 60 % 0.0 in
13:40 23.4 °F 15.2 °F 1001.9 in West 14.8 mph 14.8 mph 60 % 0.0 in
13:45 23.5 °F 15.3 °F 1001.9 in NW 9.3 mph 9.3 mph 60 % 0.0 in
13:50 23.5 °F 15.0 °F 1001.9 in SSW 5.6 mph 5.6 mph 59 % 0.0 in
13:55 23.5 °F 15.0 °F 1001.9 in WSW 9.3 mph 9.3 mph 59 % 0.0 in
14:00 23.1 °F 14.4 °F 1001.9 in West 13.0 mph 13.0 mph 58 % 0.0 in
14:05 22.7 °F 14.0 °F 1001.9 in WSW 9.3 mph 9.3 mph 58 % 0.0 in
14:10 22.6 °F 13.9 °F 1002.9 in WSW 8.7 mph 8.7 mph 58 % 0.0 in
14:15 22.3 °F 13.4 °F 1002.9 in NW 9.3 mph 9.3 mph 57 % 0.0 in
14:20 22.2 °F 13.3 °F 1002.9 in South 5.6 mph 5.6 mph 57 % 0.0 in
14:25 22.3 °F 13.4 °F 1002.9 in WSW 9.7 mph 9.7 mph 57 % 0.0 in
14:30 22.2 °F 13.3 °F 1002.9 in NNW 9.0 mph 9.0 mph 57 % 0.0 in
14:36 21.9 °F 13.3 °F 1002.9 in WNW 7.4 mph 7.4 mph 58 % 0.0 in
14:41 21.6 °F 13.0 °F 1003.9 in WNW 11.1 mph 11.1 mph 58 % 0.0 in
14:46 21.3 °F 12.9 °F 1003.9 in WSW 9.3 mph 9.3 mph 59 % 0.0 in
14:51 20.7 °F 12.9 °F 1003.9 in West 9.3 mph 9.3 mph 61 % 0.0 in
14:56 20.4 °F 12.9 °F 1003.9 in NW 7.4 mph 7.4 mph 62 % 0.0 in
15:01 20.0 °F 13.0 °F 1003.9 in NE 5.6 mph 5.6 mph 64 % 0.0 in
15:06 19.8 °F 13.1 °F 1003.9 in SW 7.4 mph 7.4 mph 65 % 0.0 in
15:11 19.4 °F 13.1 °F 1003.9 in SSW 3.9 mph 3.9 mph 67 % 0.0 in
15:16 19.2 °F 13.2 °F 1003.9 in WNW 5.6 mph 5.6 mph 68 % 0.0 in
15:21 18.9 °F 13.3 °F 1003.9 in South 4.2 mph   70 % 0.0 in
15:26 18.7 °F 13.6 °F 1003.9 in WNW 1.9 mph 1.9 mph 72 % 0.0 in
15:31 18.5 °F 13.6 °F 1003.9 in ENE 4.2 mph 4.2 mph 73 % 0.0 in
15:36 18.3 °F 13.8 °F 1003.9 in SE 3.7 mph 3.7 mph 75 % 0.0 in
15:41 18.2 °F 13.7 °F 1003.9 in ESE 2.3 mph   75 % 1.0 in
15:46 18.0 °F 13.5 °F 1003.9 in East 3.7 mph 3.7 mph 75 % 1.0 in
15:51 18.1 °F 13.8 °F 1003.9 in SW 3.7 mph 3.7 mph 76 % 1.0 in
15:56 18.1 °F 14.0 °F 1002.9 in ESE 3.9 mph 3.9 mph 77 % 1.0 in
16:01 18.0 °F 13.9 °F 1002.9 in NE 2.6 mph   77 % 1.0 in
16:06 17.9 °F 14.0 °F 1003.9 in SW 1.9 mph 1.9 mph 78 % 2.3 in
16:11 17.9 °F 14.0 °F 1003.9 in SW 1.9 mph 1.9 mph 78 % 2.3 in
16:16 17.8 °F 13.9 °F 1003.9 in SW 1.9 mph   78 % 2.3 in
16:21 17.7 °F 13.8 °F 1003.9 in WSW 3.7 mph 3.7 mph 78 % 2.3 in
16:26 17.5 °F 13.6 °F 1003.9 in WSW 3.7 mph 3.7 mph 78 % 2.3 in
16:31 17.7 °F 14.0 °F 1003.9 in SW 3.7 mph 3.7 mph 79 % 2.3 in
16:36 17.6 °F 13.9 °F 1003.9 in WSW 3.7 mph 3.7 mph 79 % 2.0 in
16:41 17.5 °F 13.8 °F 1003.9 in WSW 3.7 mph 3.7 mph 79 % 2.0 in
16:46 17.4 °F 13.7 °F 1003.9 in WNW 3.7 mph 3.7 mph 79 % 2.0 in
16:51 17.1 °F 13.4 °F 1003.9 in NNW 4.7 mph 4.7 mph 79 % 3.3 in
16:56 17.0 °F 13.3 °F 1003.9 in WSW 5.6 mph 5.6 mph 79 % 3.3 in
17:01 16.8 °F 13.1 °F 1003.9 in WNW 7.4 mph 7.4 mph 79 % 3.3 in
17:06 16.7 °F 13.2 °F 1003.9 in SW 5.6 mph 5.6 mph 80 % 2.0 in
17:11 16.6 °F 13.1 °F 1003.9 in West 3.9 mph 3.9 mph 80 % 3.0 in
17:16 16.6 °F 13.3 °F 1003.9 in WNW 1.9 mph   81 % 3.0 in
17:21 16.7 °F 13.4 °F 1003.9 in SW 3.2 mph 3.2 mph 81 % 3.0 in
17:26 16.7 °F 13.8 °F 1003.9 in Calm     83 % 3.0 in
17:31 16.9 °F 14.2 °F 1003.9 in SW 1.9 mph   84 % 3.0 in
17:36 16.7 °F 13.8 °F 1003.9 in West 5.6 mph 5.6 mph 83 % 2.3 in
17:41 16.6 °F 13.5 °F 1003.9 in WSW 3.7 mph 3.7 mph 82 % 2.3 in
17:42 16.7 °F 13.6 °F 1003.9 in West 3.7 mph 3.7 mph 82 % 2.3 in
17:47 16.8 °F 13.7 °F 1003.9 in Calm     82 % 2.3 in
17:52 16.9 °F 14.0 °F 1003.9 in West 1.9 mph   83 % 1.0 in
17:57 17.1 °F 14.2 °F 1003.9 in NNE 1.9 mph 1.9 mph 83 % 1.0 in
18:02 17.3 °F 14.6 °F 1003.9 in Calm     84 % 1.0 in
18:07 17.2 °F 14.3 °F 1003.9 in Calm     83 % 1.0 in
18:12 17.4 °F 14.5 °F 1003.9 in Calm     83 % 0.0 in
18:17 17.5 °F 14.6 °F 1003.9 in SW 3.2 mph 3.2 mph 83 % 0.0 in
18:22 17.5 °F 14.6 °F 1003.9 in SW 2.3 mph 2.3 mph 83 % 0.0 in
18:27 17.6 °F 14.7 °F 1003.9 in Calm     83 % 0.0 in
18:32 17.5 °F 14.6 °F 1003.9 in Calm     83 % 0.0 in
18:37 17.4 °F 14.3 °F 1002.9 in Calm     82 % 0.0 in
18:42 17.4 °F 14.5 °F 1002.9 in Calm     83 % 0.0 in
18:47 17.4 °F 14.3 °F 1002.9 in SW 2.3 mph   82 % 0.0 in
18:48 17.4 °F 14.3 °F 1002.9 in SW 2.3 mph   82 % 0.0 in
18:53 17.4 °F 14.3 °F 1002.9 in SW 1.9 mph 2.3 mph 82 % 0.0 in
18:58 17.4 °F 14.5 °F 1002.9 in SW 1.9 mph   83 % 0.0 in
19:03 17.4 °F 14.5 °F 1002.9 in SW 3.7 mph 3.7 mph 83 % 0.0 in
19:08 17.3 °F 14.6 °F 1002.9 in SW 2.3 mph   84 % 0.0 in
19:13 17.3 °F 14.6 °F 1002.9 in Calm     84 % 0.0 in
19:18 17.3 °F 14.4 °F 1002.9 in SW 3.7 mph 3.7 mph 83 % 0.0 in
19:23 17.1 °F 14.2 °F 1002.9 in SW 1.9 mph   83 % 0.0 in
19:25 14.6 °F 11.6 °F 1003.9 in ENE 1.6 mph   82 % 0.0 in
19:28 17.1 °F 14.2 °F 1002.9 in SW 1.9 mph 1.9 mph 83 % 0.0 in
19:33 17.0 °F 14.1 °F 1002.9 in SW 1.9 mph   83 % 0.0 in
19:35 14.6 °F 11.6 °F 1003.9 in NE 1.6 mph 3.2 mph 82 % 0.0 in
19:38 16.9 °F 14.2 °F 1002.9 in Calm     84 % 0.0 in
19:43 16.8 °F 14.1 °F 1002.9 in Calm     84 % 0.0 in
19:45 14.5 °F 11.4 °F 1003.9 in Calm     82 % 0.0 in
19:48 16.8 °F 14.1 °F 1002.9 in Calm     84 % 0.0 in
19:53 16.8 °F 14.1 °F 1002.9 in ENE 3.7 mph 3.7 mph 84 % 0.0 in
19:55 14.3 °F 11.4 °F 1003.9 in NNE 1.6 mph 3.2 mph 83 % 0.0 in
19:58 16.7 °F 14.2 °F 1002.9 in ENE 5.6 mph 5.6 mph 85 % 0.0 in
20:03 16.6 °F 13.9 °F 1002.9 in ENE 5.6 mph 5.6 mph 84 % 0.0 in
20:05 14.2 °F 11.3 °F 1003.9 in Calm     83 % 0.0 in
20:08 16.6 °F 13.9 °F 1002.9 in ENE 1.9 mph 1.9 mph 84 % 0.0 in
20:13 16.6 °F 13.9 °F 1002.9 in NE 6.9 mph 6.9 mph 84 % 0.0 in
20:15 14.1 °F 11.3 °F 1003.9 in Calm   1.6 mph 83 % 0.0 in
20:18 16.6 °F 14.1 °F 1002.9 in East 7.4 mph 7.4 mph 85 % 0.0 in
20:23 16.6 °F 14.1 °F 1002.9 in NE 5.8 mph 5.8 mph 85 % 0.0 in
20:25 14.1 °F 11.3 °F 1005.0 in WNW 1.6 mph 3.2 mph 83 % 0.0 in
20:28 16.6 °F 14.1 °F 1002.9 in NNE 5.6 mph 5.6 mph 85 % 0.0 in
20:33 16.5 °F 13.9 °F 1002.9 in NNE 7.4 mph 7.4 mph 85 % 0.0 in
20:35 14.0 °F 11.2 °F 1005.0 in Calm     83 % 0.0 in
20:38 16.5 °F 13.9 °F 1002.9 in ENE 7.4 mph 7.4 mph 85 % 0.0 in
20:43 16.4 °F 13.9 °F 1002.9 in NE 6.1 mph 6.1 mph 85 % 0.0 in
20:45 14.0 °F 11.2 °F 1005.0 in West 3.2 mph 3.2 mph 83 % 0.0 in
20:48 16.4 °F 14.1 °F 1002.9 in ESE 3.7 mph 3.9 mph 86 % 0.0 in
20:53 16.4 °F 14.1 °F 1003.9 in ENE 7.4 mph 7.4 mph 86 % 0.0 in
20:55 13.8 °F 11.2 °F 1005.0 in Calm   3.2 mph 84 % 0.0 in
20:58 16.4 °F 14.1 °F 1003.9 in North 3.9 mph 3.9 mph 86 % 0.0 in
21:03 16.5 °F 14.2 °F 1003.9 in North 9.3 mph 9.3 mph 86 % 0.0 in
21:05 13.7 °F 11.1 °F 1005.0 in Calm   3.2 mph 84 % 0.0 in
21:08 16.5 °F 14.3 °F 1003.9 in ENE 9.3 mph 9.3 mph 87 % 0.0 in
21:13 16.4 °F 14.2 °F 1003.9 in East 7.9 mph 7.9 mph 87 % 0.0 in
21:15 13.6 °F 10.9 °F 1005.0 in SW 1.6 mph 1.6 mph 84 % 0.0 in
21:18 16.4 °F 14.2 °F 1003.9 in ESE 12.6 mph 12.6 mph 87 % 0.0 in
21:23 16.3 °F 14.1 °F 1003.9 in East 7.4 mph 7.4 mph 87 % 0.0 in
21:25 13.4 °F 10.9 °F 1005.0 in Calm   1.6 mph 85 % 0.0 in
21:28 16.3 °F 14.3 °F 1003.9 in ENE 7.4 mph 7.4 mph 88 % 0.0 in
21:33 16.3 °F 14.3 °F 1003.9 in East 3.7 mph 3.7 mph 88 % 0.0 in
21:35 13.2 °F 10.6 °F 1005.0 in SW 1.6 mph 4.8 mph 84 % 0.0 in
21:38 16.2 °F 14.2 °F 1003.9 in ESE 7.6 mph 7.6 mph 88 % 0.0 in
21:43 16.1 °F 13.9 °F 1003.9 in ENE 11.1 mph 11.1 mph 87 % 0.0 in
21:45 13.1 °F 10.4 °F 1005.0 in Calm   3.2 mph 84 % 0.0 in
21:48 16.0 °F 13.7 °F 1003.9 in NE 7.4 mph 7.4 mph 86 % 0.0 in
21:53 16.0 °F 13.7 °F 1003.9 in ENE 7.4 mph 7.4 mph 86 % 0.0 in
21:54 16.0 °F 13.7 °F 1003.9 in ENE 7.4 mph 7.4 mph 86 % 0.0 in
21:55 13.4 °F 10.4 °F 1005.0 in WSW 3.2 mph 6.4 mph 82 % 0.0 in
21:59 15.9 °F 13.6 °F 1003.9 in NNE 7.4 mph 7.4 mph 86 % 0.0 in
22:04 15.9 °F 13.6 °F 1003.9 in ENE 5.6 mph 5.6 mph 86 % 0.0 in
22:05 13.6 °F 10.2 °F 1005.0 in West 1.6 mph 4.8 mph 80 % 0.0 in
22:09 15.8 °F 13.3 °F 1005.0 in East 4.7 mph 4.7 mph 85 % 0.0 in
22:14 15.9 °F 13.4 °F 1005.0 in East 5.6 mph 5.6 mph 85 % 0.0 in
22:15 13.6 °F 10.0 °F 1005.0 in West 1.6 mph 4.8 mph 79 % 0.0 in
22:19 15.8 °F 13.1 °F 1005.0 in NE 5.6 mph 5.6 mph 84 % 0.0 in
22:24 15.8 °F 13.1 °F 1005.0 in ENE 3.7 mph 3.7 mph 84 % 0.0 in
22:25 13.6 °F 9.7 °F 1005.0 in Calm   1.6 mph 77 % 0.0 in
22:29 15.8 °F 13.1 °F 1005.0 in ENE 5.6 mph 5.6 mph 84 % 0.0 in
22:34 15.8 °F 13.1 °F 1005.0 in ENE 5.3 mph 5.3 mph 84 % 0.0 in
22:35 13.8 °F 9.7 °F 1005.0 in West 3.2 mph 3.2 mph 76 % 0.0 in
22:39 15.7 °F 13.0 °F 1005.0 in NNE 5.0 mph 5.0 mph 84 % 0.0 in
22:44 15.7 °F 13.0 °F 1005.0 in NE 7.4 mph 7.4 mph 84 % 0.0 in
22:45 13.6 °F 9.4 °F 1005.0 in Calm   3.2 mph 76 % 0.0 in
22:49 15.5 °F 12.6 °F 1005.0 in ENE 5.6 mph 5.6 mph 83 % 0.0 in
22:54 15.5 °F 12.4 °F 1005.0 in NNE 7.4 mph 7.4 mph 82 % 0.0 in
22:55 13.3 °F 8.9 °F 1005.0 in Calm     75 % 0.0 in
22:59 15.5 °F 12.4 °F 1005.0 in Calm     82 % 0.0 in
23:04 15.5 °F 12.4 °F 1005.0 in ENE 3.7 mph 3.7 mph 82 % 0.0 in
23:05 13.2 °F 8.9 °F 1005.0 in WSW 1.6 mph 4.8 mph 75 % 0.0 in
23:09 15.4 °F 12.3 °F 1005.0 in ESE 7.4 mph 7.4 mph 82 % 0.0 in
23:14 15.4 °F 12.3 °F 1005.0 in ESE 7.4 mph 7.4 mph 82 % 0.0 in
23:15 13.1 °F 8.9 °F 1005.0 in WSW 1.6 mph 3.2 mph 76 % 0.0 in
23:19 15.4 °F 12.3 °F 1005.0 in SSE 1.9 mph   82 % 0.0 in
23:24 15.3 °F 12.2 °F 1005.0 in East 4.7 mph 4.7 mph 82 % 0.0 in
23:25 12.7 °F 8.6 °F 1005.0 in Calm   3.2 mph 76 % 0.0 in
23:29 15.2 °F 12.2 °F 1005.0 in ESE 5.6 mph 5.6 mph 82 % 0.0 in
23:34 15.1 °F 12.1 °F 1005.0 in NNW 5.6 mph 5.6 mph 82 % 0.0 in
23:35 12.7 °F 8.4 °F 1005.0 in WSW 3.2 mph 4.8 mph 75 % 0.0 in
23:39 15.1 °F 12.1 °F 1005.0 in WNW 3.5 mph   82 % 0.0 in
23:44 15.0 °F 12.1 °F 1005.0 in ENE 3.7 mph 3.7 mph 83 % 0.0 in
23:45 12.7 °F 8.4 °F 1005.0 in WSW 1.6 mph 3.2 mph 75 % 0.0 in
23:49 14.9 °F 11.8 °F 1005.0 in NE 7.4 mph 7.4 mph 82 % 0.0 in
23:54 14.8 °F 11.8 °F 1005.0 in NNW 1.9 mph   82 % 0.0 in
23:55 12.5 °F 8.2 °F 1005.0 in WSW 1.6 mph 3.2 mph 75 % 0.0 in
23:59 14.7 °F 11.8 °F 1005.0 in NE 3.7 mph 3.7 mph 83 % 0.0 in
Meteo Sesrovires
Elogis d' Weather Underground - 3.75 mb

Guio original per  Jim McMurry - jmcmurry@mwt.net Adaptat per a la plantilla per  Wim van der Kuil - Leuven-Template.eu

Trobareu la nostra informacio del temps tambe a:

Weather Underground

AWEKAS